createdAt,value
2023-04-17T00:00:43.520Z,10.14
2023-04-17T00:04:46.659Z,10.13
2023-04-17T00:08:48.878Z,10.20
2023-04-17T00:12:51.377Z,10.12
2023-04-17T00:16:53.620Z,10.08
2023-04-17T00:20:57.271Z,10.18
2023-04-17T00:24:59.576Z,10.18
2023-04-17T00:29:02.138Z,10.21
2023-04-17T00:33:05.918Z,10.21
2023-04-17T00:37:08.050Z,10.24
2023-04-17T00:41:10.650Z,10.11
2023-04-17T00:45:12.828Z,10.13
2023-04-17T00:49:14.948Z,10.13
2023-04-17T00:53:18.057Z,10.12
2023-04-17T00:57:20.319Z,10.10
2023-04-17T01:01:22.979Z,10.07
2023-04-17T01:05:32.214Z,10.16
2023-04-17T01:09:42.247Z,10.17
2023-04-17T01:13:47.729Z,10.19
2023-04-17T01:17:51.258Z,10.18
2023-04-17T01:21:53.357Z,10.25
2023-04-17T01:25:57.564Z,10.29
2023-04-17T01:30:01.263Z,10.29
2023-04-17T01:34:06.340Z,10.28
2023-04-17T01:38:08.452Z,10.18
2023-04-17T01:42:10.838Z,10.20
2023-04-17T01:46:13.754Z,10.13
2023-04-17T01:50:16.583Z,9.98
2023-04-17T01:54:21.378Z,10.02
2023-04-17T01:58:24.327Z,9.93
2023-04-17T02:02:26.976Z,9.85
2023-04-17T02:06:29.751Z,9.70
2023-04-17T02:10:32.022Z,9.64
2023-04-17T02:14:34.205Z,9.58
2023-04-17T02:18:36.704Z,9.49
2023-04-17T02:22:38.829Z,9.35
2023-04-17T02:26:41.068Z,9.37
2023-04-17T02:30:43.250Z,9.35
2023-04-17T02:34:47.243Z,9.34
2023-04-17T02:38:51.856Z,9.38
2023-04-17T02:42:54.281Z,9.39
2023-04-17T02:46:56.549Z,9.30
2023-04-17T02:50:59.279Z,9.29
2023-04-17T02:55:03.361Z,9.26
2023-04-17T02:59:06.084Z,9.25
2023-04-17T03:03:09.545Z,9.25
2023-04-17T03:07:13.728Z,9.25
2023-04-17T03:11:16.062Z,9.26
2023-04-17T03:15:18.252Z,9.20
2023-04-17T03:19:20.837Z,9.10
2023-04-17T03:23:23.056Z,9.14
2023-04-17T03:27:26.426Z,9.03
2023-04-17T03:31:29.825Z,8.84
2023-04-17T03:35:32.145Z,8.70
2023-04-17T03:39:34.374Z,8.63
2023-04-17T03:43:36.740Z,8.56
2023-04-17T03:47:38.834Z,8.69
2023-04-17T03:51:42.706Z,8.62
2023-04-17T03:55:52.886Z,8.43
2023-04-17T04:00:02.520Z,8.97
2023-04-17T04:04:20.576Z,9.16
2023-04-17T04:08:25.554Z,8.97
2023-04-17T04:12:29.590Z,8.92
2023-04-17T04:16:32.328Z,8.68
2023-04-17T04:20:45.768Z,8.51
2023-04-17T04:24:53.880Z,8.46
2023-04-17T04:29:01.584Z,8.52
2023-04-17T04:33:20.546Z,8.54
2023-04-17T04:37:30.266Z,8.49
2023-04-17T04:41:45.921Z,8.51
2023-04-17T04:45:49.413Z,8.57
2023-04-17T04:49:54.184Z,8.69
2023-04-17T04:53:58.133Z,8.91
2023-04-17T04:58:00.582Z,9.09
2023-04-17T05:02:03.351Z,9.25
2023-04-17T05:06:06.239Z,9.53
2023-04-17T05:10:19.513Z,9.66
2023-04-17T05:19:19.666Z,9.95
2023-04-17T05:23:29.180Z,10.02
2023-04-17T05:27:31.264Z,10.04
2023-04-17T05:31:35.359Z,10.11
2023-04-17T05:35:42.913Z,10.11
2023-04-17T05:39:45.255Z,10.22
2023-04-17T05:43:47.400Z,10.34
2023-04-17T05:47:49.779Z,10.36
2023-04-17T05:51:52.320Z,10.34
2023-04-17T05:55:54.686Z,10.46
2023-04-17T05:59:56.896Z,10.49
2023-04-17T06:04:02.156Z,10.62
2023-04-17T06:08:04.951Z,10.67
2023-04-17T06:12:07.650Z,10.73
2023-04-17T06:16:09.898Z,10.77
2023-04-17T06:20:12.351Z,10.78
2023-04-17T06:24:14.604Z,10.80
2023-04-17T06:28:21.914Z,10.79
2023-04-17T06:32:27.117Z,10.87
2023-04-17T06:36:30.441Z,10.94
2023-04-17T06:40:34.088Z,11.03
2023-04-17T06:44:41.009Z,11.11
2023-04-17T06:48:49.722Z,11.19
2023-04-17T06:52:52.284Z,11.31
2023-04-17T06:56:54.375Z,11.43
2023-04-17T07:00:57.172Z,11.56
2023-04-17T07:04:59.298Z,11.81
2023-04-17T07:09:01.734Z,12.02
2023-04-17T07:13:03.819Z,12.25
2023-04-17T07:17:06.425Z,12.45
2023-04-17T07:21:08.561Z,12.44
2023-04-17T07:25:10.987Z,12.51
2023-04-17T07:29:13.490Z,12.49
2023-04-17T07:33:17.288Z,12.51
2023-04-17T07:37:20.306Z,12.28
2023-04-17T07:41:22.939Z,12.19
2023-04-17T07:45:28.854Z,12.31
2023-04-17T07:49:32.409Z,12.39
2023-04-17T07:53:37.683Z,12.74
2023-04-17T07:57:42.924Z,12.80
2023-04-17T08:01:45.337Z,13.02
2023-04-17T08:05:48.934Z,12.97
2023-04-17T08:09:51.264Z,12.71
2023-04-17T08:13:55.030Z,12.63
2023-04-17T08:17:58.293Z,12.60
2023-04-17T08:22:05.051Z,12.61
2023-04-17T08:26:11.488Z,12.61
2023-04-17T08:30:16.962Z,12.63
2023-04-17T08:34:21.616Z,12.67
2023-04-17T08:38:23.793Z,12.77
2023-04-17T08:42:26.411Z,12.57
2023-04-17T08:46:31.460Z,12.75
2023-04-17T08:50:36.215Z,12.86
2023-04-17T08:54:39.664Z,12.87
2023-04-17T08:58:42.539Z,12.83
2023-04-17T09:02:55.971Z,13.05
2023-04-17T09:06:58.576Z,13.02
2023-04-17T09:11:00.803Z,13.50
2023-04-17T09:15:17.046Z,13.81
2023-04-17T09:19:19.313Z,14.29
2023-04-17T09:23:23.517Z,14.88
2023-04-17T09:27:27.497Z,14.88
2023-04-17T09:31:31.673Z,14.87
2023-04-17T09:35:39.853Z,13.81
2023-04-17T09:40:01.385Z,13.73
2023-04-17T09:44:06.477Z,14.19
2023-04-17T09:48:12.842Z,14.33
2023-04-17T09:52:15.654Z,13.90
2023-04-17T09:56:18.179Z,14.26
2023-04-17T10:00:23.817Z,14.73
2023-04-17T10:04:28.538Z,14.65
2023-04-17T10:08:31.259Z,14.86
2023-04-17T10:12:34.841Z,14.77
2023-04-17T10:16:39.440Z,14.44
2023-04-17T10:20:45.037Z,14.56
2023-04-17T10:24:52.033Z,14.60
2023-04-17T10:28:55.856Z,15.03
2023-04-17T10:33:13.649Z,14.75
2023-04-17T10:37:16.227Z,14.75
2023-04-17T10:41:20.090Z,14.76
2023-04-17T10:45:22.328Z,14.64
2023-04-17T10:49:24.804Z,14.73
2023-04-17T10:53:46.957Z,14.14
2023-04-17T10:57:56.932Z,14.04
2023-04-17T11:02:01.667Z,14.07
2023-04-17T11:06:05.865Z,14.60
2023-04-17T11:10:10.354Z,14.48
2023-04-17T11:14:18.010Z,14.98
2023-04-17T11:18:24.236Z,15.14
2023-04-17T11:22:27.369Z,15.49
2023-04-17T11:26:29.518Z,15.30
2023-04-17T11:30:44.909Z,15.08
2023-04-17T11:34:47.312Z,15.33
2023-04-17T11:38:51.207Z,15.57
2023-04-17T11:42:57.024Z,16.58
2023-04-17T11:46:59.298Z,16.81
2023-04-17T11:51:04.923Z,16.20
2023-04-17T11:55:09.544Z,15.88
2023-04-17T11:59:11.865Z,16.03
2023-04-17T14:22:03.896Z,16.33
2023-04-17T14:26:07.693Z,16.20
2023-04-17T14:30:10.095Z,16.33
2023-04-17T14:34:12.383Z,16.51
2023-04-17T14:38:14.553Z,16.99
2023-04-17T14:42:16.706Z,16.81
2023-04-17T14:46:18.788Z,16.79
2023-04-17T14:50:20.964Z,16.72
2023-04-17T14:54:23.341Z,16.96
2023-04-17T14:58:25.611Z,17.10
2023-04-17T15:02:27.823Z,16.66
2023-04-17T15:06:30.030Z,15.99
2023-04-17T15:10:40.568Z,16.40
2023-04-17T15:14:50.742Z,16.50
2023-04-17T15:18:52.816Z,16.32
2023-04-17T15:22:55.488Z,16.45
2023-04-17T15:26:57.812Z,15.63
2023-04-17T15:31:02.353Z,15.43
2023-04-17T15:35:05.573Z,15.42
2023-04-17T15:39:08.226Z,15.22
2023-04-17T15:43:11.274Z,15.18
2023-04-17T15:47:13.404Z,15.34
2023-04-17T15:51:15.622Z,15.93
2023-04-17T15:55:18.240Z,15.43
2023-04-17T15:59:20.889Z,15.19
2023-04-17T16:03:23.113Z,14.87
2023-04-17T16:07:25.601Z,14.66
2023-04-17T16:11:28.278Z,14.24
2023-04-17T16:15:30.797Z,14.13
2023-04-17T16:19:33.162Z,14.34
2023-04-17T16:23:38.908Z,14.11
2023-04-17T16:27:41.255Z,13.98
2023-04-17T16:31:43.454Z,13.99
2023-04-17T16:35:45.765Z,13.98
2023-04-17T16:39:47.922Z,13.79
2023-04-17T16:43:50.246Z,13.81
2023-04-17T16:47:52.736Z,13.88
2023-04-17T16:51:55.088Z,13.74
2023-04-17T16:55:57.283Z,13.74
2023-04-17T16:59:59.533Z,13.73
2023-04-17T17:04:01.866Z,13.70
2023-04-17T17:08:04.079Z,13.66
2023-04-17T17:12:06.804Z,13.61
2023-04-17T17:16:09.006Z,13.59
2023-04-17T17:20:11.593Z,13.58
2023-04-17T17:24:13.744Z,13.47
2023-04-17T17:28:15.818Z,13.53
2023-04-17T17:32:18.300Z,13.53
2023-04-17T17:36:21.916Z,13.56
2023-04-17T17:40:24.357Z,13.64
2023-04-17T17:44:26.718Z,13.65
2023-04-17T17:48:55.866Z,13.56
2023-04-17T17:52:59.183Z,13.45
2023-04-17T17:57:01.482Z,13.36
2023-04-17T18:01:03.759Z,13.34
2023-04-17T18:05:06.551Z,13.32
2023-04-17T18:09:11.563Z,13.28
2023-04-17T18:13:16.022Z,13.28
2023-04-17T18:17:18.188Z,13.27
2023-04-17T18:21:20.294Z,13.21
2023-04-17T18:25:22.395Z,13.19
2023-04-17T18:29:24.749Z,13.22
2023-04-17T18:33:26.905Z,13.24
2023-04-17T18:37:29.329Z,13.22
2023-04-17T18:41:31.442Z,13.25
2023-04-17T18:45:33.750Z,13.28
2023-04-17T18:49:36.120Z,13.25
2023-04-17T18:53:38.636Z,13.73
2023-04-17T18:57:40.803Z,13.32
2023-04-17T19:01:43.250Z,13.28
2023-04-17T19:05:45.743Z,13.22
2023-04-17T19:09:48.565Z,13.23
2023-04-17T19:13:50.930Z,13.11
2023-04-17T19:17:53.136Z,13.07
2023-04-17T19:21:55.465Z,13.05
2023-04-17T19:25:58.073Z,13.01
2023-04-17T19:30:01.986Z,12.94
2023-04-17T19:34:07.383Z,13.01
2023-04-17T19:38:09.392Z,12.93
2023-04-17T19:42:11.410Z,12.97
2023-04-17T19:46:14.128Z,13.01
2023-04-17T19:50:16.658Z,12.95
2023-04-17T19:54:19.373Z,13.08
2023-04-17T19:58:21.520Z,13.00
2023-04-17T20:02:23.920Z,12.86
2023-04-17T20:06:26.830Z,12.83
2023-04-17T20:10:28.918Z,12.81
2023-04-17T20:14:31.660Z,12.85
2023-04-17T20:18:35.439Z,12.81
2023-04-17T20:22:39.728Z,12.68
2023-04-17T20:26:44.302Z,12.74
2023-04-17T20:30:46.973Z,12.73
2023-04-17T20:34:49.087Z,12.70
2023-04-17T20:38:51.432Z,12.75
2023-04-17T20:42:53.630Z,12.81
2023-04-17T20:46:55.990Z,12.74
2023-04-17T20:51:02.401Z,12.82
2023-04-17T20:55:05.802Z,12.84
2023-04-17T20:59:07.988Z,12.86
2023-04-17T21:03:10.097Z,12.93
2023-04-17T21:07:12.770Z,12.91
2023-04-17T21:11:15.416Z,12.89
2023-04-17T21:15:18.264Z,12.85
2023-04-17T21:19:21.072Z,12.83
2023-04-17T21:23:23.230Z,12.74
2023-04-17T21:27:25.459Z,12.74
2023-04-17T21:31:30.903Z,12.74
2023-04-17T21:35:33.170Z,12.83
2023-04-17T21:39:35.535Z,12.80
2023-04-17T21:43:37.793Z,12.89
2023-04-17T21:47:39.892Z,12.83
2023-04-17T21:51:42.337Z,12.83
2023-04-17T21:55:44.469Z,12.81
2023-04-17T21:59:46.509Z,12.78
2023-04-17T22:03:48.698Z,12.72
2023-04-17T22:07:55.033Z,12.85
2023-04-17T22:11:58.827Z,12.77
2023-04-17T22:16:01.204Z,12.71
2023-04-17T22:20:04.040Z,12.63
2023-04-17T22:24:24.888Z,12.55
2023-04-17T22:28:30.661Z,12.46
2023-04-17T22:33:28.857Z,12.37
2023-04-17T22:37:49.734Z,12.42
2023-04-17T22:42:29.421Z,12.49
2023-04-17T22:46:50.358Z,12.50
2023-04-17T22:50:52.460Z,12.50
2023-04-17T22:54:55.092Z,12.55
2023-04-17T22:58:57.149Z,12.57
2023-04-17T23:02:59.316Z,12.49
2023-04-17T23:07:01.566Z,12.48
2023-04-17T23:11:04.902Z,12.46
2023-04-17T23:15:08.370Z,12.43
2023-04-17T23:19:10.464Z,12.43
2023-04-17T23:23:12.736Z,12.45
2023-04-17T23:27:14.805Z,12.52
2023-04-17T23:31:17.001Z,12.47
2023-04-17T23:35:20.751Z,12.53
2023-04-17T23:39:23.009Z,12.56
2023-04-17T23:43:25.690Z,12.54
2023-04-17T23:47:28.131Z,12.61
2023-04-17T23:51:30.545Z,12.61
2023-04-17T23:55:32.693Z,12.67
2023-04-17T23:59:35.078Z,12.70
